createdAt,value
2022-08-01T00:01:50.770Z,7.05
2022-08-01T00:04:17.767Z,6.90
2022-08-01T00:06:44.620Z,6.43
2022-08-01T00:09:11.505Z,6.53
2022-08-01T00:12:08.158Z,6.10
2022-08-01T00:14:35.203Z,6.60
2022-08-01T00:17:07.054Z,6.35
2022-08-01T00:19:34.548Z,7.30
2022-08-01T00:22:01.505Z,7.07
2022-08-01T00:24:29.392Z,6.20
2022-08-01T00:26:56.214Z,6.30
2022-08-01T00:30:11.523Z,6.50
2022-08-01T00:32:09.985Z,6.50
2022-08-01T00:34:36.828Z,6.35
2022-08-01T00:37:04.046Z,6.63
2022-08-01T00:39:30.984Z,6.55
2022-08-01T00:41:59.760Z,6.13
2022-08-01T00:44:27.876Z,6.20
2022-08-01T00:46:54.737Z,6.38
2022-08-01T00:49:21.721Z,5.65
2022-08-01T00:51:48.796Z,6.10
2022-08-01T00:54:17.078Z,6.38
2022-08-01T00:56:44.769Z,6.13
2022-08-01T00:59:14.037Z,5.85
2022-08-01T01:01:46.493Z,5.82
2022-08-01T01:04:13.985Z,5.70
2022-08-01T01:07:03.741Z,6.22
2022-08-01T01:09:30.502Z,6.30
2022-08-01T01:12:30.141Z,6.60
2022-08-01T01:15:12.000Z,6.75
2022-08-01T01:17:51.848Z,6.22
2022-08-01T01:20:22.025Z,6.40
2022-08-01T01:23:11.327Z,6.40
2022-08-01T01:25:38.096Z,6.72
2022-08-01T01:28:19.293Z,6.85
2022-08-01T01:30:50.023Z,7.38
2022-08-01T01:33:19.177Z,7.32
2022-08-01T01:35:55.832Z,7.07
2022-08-01T01:38:27.634Z,7.18
2022-08-01T01:40:57.155Z,7.50
2022-08-01T01:43:28.982Z,7.18
2022-08-01T01:46:01.920Z,7.55
2022-08-01T01:48:30.127Z,6.30
2022-08-01T01:50:58.717Z,7.15
2022-08-01T01:53:28.455Z,6.60
2022-08-01T01:55:58.316Z,7.00
2022-08-01T01:58:26.192Z,7.70
2022-08-01T02:00:56.359Z,6.77
2022-08-01T02:03:24.869Z,6.80
2022-08-01T02:05:54.786Z,7.03
2022-08-01T02:08:23.215Z,6.55
2022-08-01T02:10:53.166Z,6.20
2022-08-01T02:13:20.329Z,5.83
2022-08-01T02:16:00.064Z,6.80
2022-08-01T02:18:27.661Z,6.47
2022-08-01T02:20:56.957Z,6.50
2022-08-01T02:23:29.348Z,7.35
2022-08-01T02:26:09.815Z,6.60
2022-08-01T02:28:46.995Z,6.00
2022-08-01T02:31:18.222Z,5.93
2022-08-01T02:33:50.670Z,6.45
2022-08-01T02:36:29.159Z,5.97
2022-08-01T02:39:02.936Z,5.97
2022-08-01T02:41:31.456Z,6.20
2022-08-01T02:44:03.794Z,5.53
2022-08-01T02:46:40.823Z,6.22
2022-08-01T02:49:11.449Z,6.30
2022-08-01T02:51:40.995Z,6.93
2022-08-01T02:54:09.914Z,6.70
2022-08-01T02:56:38.607Z,6.32
2022-08-01T02:59:14.511Z,6.43
2022-08-01T03:01:43.769Z,6.55
2022-08-01T03:04:11.834Z,6.10
2022-08-01T03:06:40.154Z,6.50
2022-08-01T03:09:10.685Z,6.63
2022-08-01T03:11:42.875Z,6.38
2022-08-01T03:14:12.119Z,6.10
2022-08-01T03:16:41.186Z,5.60
2022-08-01T03:19:11.123Z,5.80
2022-08-01T03:21:38.700Z,6.30
2022-08-01T03:24:07.592Z,5.60
2022-08-01T03:26:37.419Z,5.88
2022-08-01T03:29:12.069Z,5.20
2022-08-01T03:31:39.875Z,5.85
2022-08-01T03:34:07.519Z,5.63
2022-08-01T03:36:38.686Z,5.85
2022-08-01T03:39:09.705Z,5.05
2022-08-01T03:41:42.044Z,6.20
2022-08-01T03:44:14.633Z,6.50
2022-08-01T03:46:47.584Z,5.43
2022-08-01T03:49:21.256Z,5.90
2022-08-01T03:51:49.633Z,6.20
2022-08-01T03:54:21.337Z,5.20
2022-08-01T03:56:51.015Z,5.40
2022-08-01T03:59:18.483Z,6.07
2022-08-01T04:01:47.420Z,6.00
2022-08-01T04:04:15.005Z,5.63
2022-08-01T04:06:57.735Z,5.83
2022-08-01T04:09:24.676Z,5.70
2022-08-01T04:11:51.512Z,5.47
2022-08-01T04:14:18.317Z,6.00
2022-08-01T04:16:45.209Z,5.50
2022-08-01T04:19:12.543Z,5.60
2022-08-01T04:21:39.505Z,5.53
2022-08-01T04:24:19.271Z,5.85
2022-08-01T04:26:48.744Z,5.50
2022-08-01T04:29:18.548Z,5.45
2022-08-01T04:31:47.700Z,5.43
2022-08-01T04:34:18.796Z,5.00
2022-08-01T04:36:48.316Z,5.50
2022-08-01T04:39:17.949Z,6.13
2022-08-01T04:41:47.172Z,5.50
2022-08-01T04:44:15.172Z,4.90
2022-08-01T04:46:42.380Z,5.43
2022-08-01T04:49:09.584Z,6.10
2022-08-01T04:51:36.675Z,6.22
2022-08-01T04:54:03.632Z,6.38
2022-08-01T04:56:30.413Z,6.50
2022-08-01T04:58:57.213Z,6.30
2022-08-01T05:01:24.267Z,6.32
2022-08-01T05:03:51.148Z,6.50
2022-08-01T05:06:17.940Z,6.55
2022-08-01T05:08:44.817Z,6.60
2022-08-01T05:11:11.629Z,7.05
2022-08-01T05:13:38.451Z,7.07
2022-08-01T05:16:05.483Z,6.55
2022-08-01T05:18:32.352Z,6.55
2022-08-01T05:20:59.725Z,6.43
2022-08-01T05:23:42.666Z,6.65
2022-08-01T05:26:14.599Z,5.47
2022-08-01T05:28:43.053Z,6.40
2022-08-01T05:31:10.130Z,5.80
2022-08-01T05:33:36.984Z,5.80
2022-08-01T05:36:04.075Z,6.50
2022-08-01T05:38:30.939Z,5.72
2022-08-01T05:40:57.830Z,6.05
2022-08-01T05:43:28.771Z,6.22
2022-08-01T05:45:56.225Z,6.80
2022-08-01T05:48:23.175Z,6.40
2022-08-01T05:50:50.065Z,6.15
2022-08-01T05:53:16.961Z,5.80
2022-08-01T05:55:43.742Z,5.95
2022-08-01T05:58:12.151Z,5.73
2022-08-01T06:00:40.269Z,6.70
2022-08-01T06:03:07.073Z,5.63
2022-08-01T06:05:34.099Z,6.53
2022-08-01T06:08:00.935Z,6.45
2022-08-01T06:10:27.836Z,6.30
2022-08-01T06:12:54.776Z,5.95
2022-08-01T06:15:22.537Z,5.80
2022-08-01T06:17:49.360Z,5.82
2022-08-01T06:20:16.394Z,5.70
2022-08-01T06:22:43.224Z,5.90
2022-08-01T06:25:10.199Z,5.55
2022-08-01T06:27:37.115Z,5.82
2022-08-01T06:30:05.504Z,5.60
2022-08-01T06:32:32.352Z,5.20
2022-08-01T06:34:59.319Z,6.00
2022-08-01T06:37:33.064Z,5.60
2022-08-01T06:40:08.136Z,6.03
2022-08-01T06:42:35.758Z,6.00
2022-08-01T06:45:07.982Z,5.75
2022-08-01T06:47:35.180Z,5.30
2022-08-01T06:50:02.079Z,5.78
2022-08-01T06:52:29.642Z,5.97
2022-08-01T06:54:56.738Z,5.10
2022-08-01T06:57:23.770Z,5.18
2022-08-01T06:59:54.251Z,5.53
2022-08-01T07:02:22.300Z,5.20
2022-08-01T07:04:49.450Z,5.65
2022-08-01T07:07:16.366Z,5.20
2022-08-01T07:09:43.374Z,6.03
2022-08-01T07:12:10.491Z,5.43
2022-08-01T07:14:37.337Z,4.90
2022-08-01T07:17:04.453Z,5.47
2022-08-01T07:19:31.265Z,5.53
2022-08-01T07:21:58.118Z,4.30
2022-08-01T07:24:25.171Z,4.83
2022-08-01T07:26:55.789Z,5.40
2022-08-01T07:29:24.317Z,5.20
2022-08-01T07:31:52.577Z,4.97
2022-08-01T07:34:19.554Z,5.30
2022-08-01T07:36:46.821Z,5.03
2022-08-01T07:39:13.772Z,4.88
2022-08-01T07:41:45.556Z,4.68
2022-08-01T07:44:28.239Z,5.30
2022-08-01T07:46:56.208Z,5.30
2022-08-01T07:49:23.232Z,5.30
2022-08-01T07:52:03.837Z,4.90
2022-08-01T07:54:35.444Z,5.53
2022-08-01T07:57:04.100Z,5.10
2022-08-01T07:59:31.337Z,5.18
2022-08-01T08:01:58.706Z,5.03
2022-08-01T08:04:26.427Z,4.95
2022-08-01T08:06:53.310Z,5.13
2022-08-01T08:09:20.482Z,4.90
2022-08-01T08:11:48.540Z,4.95
2022-08-01T08:14:16.592Z,5.03
2022-08-01T08:16:44.474Z,4.55
2022-08-01T08:19:11.982Z,4.75
2022-08-01T08:21:39.518Z,4.60
2022-08-01T08:24:07.463Z,4.40
2022-08-01T08:26:36.372Z,4.50
2022-08-01T08:29:03.325Z,4.45
2022-08-01T08:31:51.187Z,4.75
2022-08-01T08:34:17.601Z,4.75
2022-08-01T08:36:47.821Z,4.93
2022-08-01T08:39:15.421Z,4.73
2022-08-01T08:41:44.873Z,4.53
2022-08-01T08:44:18.032Z,4.60
2022-08-01T08:46:50.757Z,5.25
2022-08-01T08:49:20.820Z,5.30
2022-08-01T08:51:51.547Z,4.90
2022-08-01T08:54:22.432Z,5.25
2022-08-01T08:57:00.192Z,5.65
2022-08-01T08:59:27.482Z,5.53
2022-08-01T09:01:54.357Z,4.75
2022-08-01T09:04:26.462Z,5.60
2022-08-01T09:06:54.521Z,5.25
2022-08-01T09:09:21.430Z,4.90
2022-08-01T09:11:56.914Z,4.45
2022-08-01T09:14:25.815Z,5.07
2022-08-01T09:17:10.398Z,5.17
2022-08-01T09:19:40.526Z,4.80
2022-08-01T09:22:19.758Z,4.50
2022-08-01T09:25:09.737Z,5.30
2022-08-01T09:27:39.036Z,5.40
2022-08-01T09:30:17.149Z,4.43
2022-08-01T09:32:59.721Z,5.53
2022-08-01T09:35:36.343Z,5.40
2022-08-01T09:38:23.285Z,5.45
2022-08-01T09:40:55.931Z,5.95
2022-08-01T09:43:28.629Z,5.00
2022-08-01T09:45:58.895Z,4.70
2022-08-01T09:48:28.664Z,4.78
2022-08-01T09:51:03.877Z,4.40
2022-08-01T09:53:50.985Z,4.93
2022-08-01T09:56:19.229Z,5.43
2022-08-01T09:59:02.061Z,4.88
2022-08-01T10:01:48.086Z,5.32
2022-08-01T10:04:18.523Z,4.43
2022-08-01T10:06:47.613Z,4.80
2022-08-01T10:09:28.678Z,5.10
2022-08-01T10:12:08.854Z,4.82
2022-08-01T10:14:37.928Z,5.03
2022-08-01T10:17:08.339Z,5.28
2022-08-01T10:19:36.570Z,5.00
2022-08-01T10:22:06.686Z,4.93
2022-08-01T10:24:38.132Z,4.50
2022-08-01T10:27:12.744Z,4.82
2022-08-01T10:30:05.674Z,5.40
2022-08-01T10:32:36.861Z,4.60
2022-08-01T10:35:15.146Z,4.73
2022-08-01T10:37:52.441Z,4.60
2022-08-01T10:40:30.005Z,4.50
2022-08-01T10:42:58.838Z,4.90
2022-08-01T10:45:26.522Z,4.38
2022-08-01T10:48:32.185Z,4.70
2022-08-01T10:51:05.227Z,4.80
2022-08-01T10:53:54.702Z,4.70
2022-08-01T10:56:27.169Z,5.07
2022-08-01T10:59:06.385Z,5.60
2022-08-01T11:01:43.421Z,5.37
2022-08-01T11:04:17.054Z,5.20
2022-08-01T11:07:03.427Z,5.18
2022-08-01T11:09:39.277Z,5.10
2022-08-01T11:12:08.049Z,5.45
2022-08-01T11:14:59.632Z,5.10
2022-08-01T11:17:43.128Z,5.05
2022-08-01T11:20:20.387Z,4.80
2022-08-01T11:23:03.415Z,4.85
2022-08-01T11:26:05.070Z,5.10
2022-08-01T11:28:32.946Z,5.20
2022-08-01T11:31:11.835Z,5.60
2022-08-01T11:33:45.934Z,4.63
2022-08-01T11:36:14.458Z,4.38
2022-08-01T11:38:47.528Z,4.80
2022-08-01T11:41:17.110Z,5.13
2022-08-01T11:44:11.581Z,4.72
2022-08-01T11:46:49.790Z,4.75
2022-08-01T11:49:39.366Z,4.90
2022-08-01T11:52:26.092Z,5.13
2022-08-01T11:55:09.952Z,5.20
2022-08-01T11:57:37.939Z,5.25
2022-08-01T12:00:18.648Z,5.43
2022-08-01T12:02:47.818Z,5.57
2022-08-01T12:05:16.974Z,5.15
2022-08-01T12:07:45.625Z,5.80
2022-08-01T12:10:18.142Z,6.00
2022-08-01T12:13:00.793Z,6.15
2022-08-01T12:15:39.708Z,6.43
2022-08-01T12:18:08.046Z,6.28
2022-08-01T12:20:55.687Z,6.57
2022-08-01T12:23:23.775Z,6.35
2022-08-01T12:25:54.384Z,6.25
2022-08-01T12:28:21.384Z,6.63
2022-08-01T12:30:49.996Z,6.20
2022-08-01T12:33:20.008Z,6.07
2022-08-01T12:35:47.285Z,6.20
2022-08-01T12:38:20.225Z,6.22
2022-08-01T12:40:52.381Z,6.43
2022-08-01T12:43:28.581Z,5.88
2022-08-01T12:45:59.708Z,5.73
2022-08-01T12:48:27.789Z,5.60
2022-08-01T12:50:56.370Z,6.15
2022-08-01T12:53:24.411Z,6.70
2022-08-01T12:55:58.193Z,6.63
2022-08-01T12:58:33.311Z,6.70
2022-08-01T13:01:14.455Z,7.10
2022-08-01T13:03:42.090Z,6.28
2022-08-01T13:06:17.479Z,6.55
2022-08-01T13:08:45.806Z,6.25
2022-08-01T13:11:14.465Z,6.27
2022-08-01T13:13:46.526Z,6.68
2022-08-01T13:16:26.028Z,6.38
2022-08-01T13:19:00.376Z,6.43
2022-08-01T13:21:34.304Z,5.95
2022-08-01T13:24:28.457Z,6.13
2022-08-01T13:26:58.301Z,6.20
2022-08-01T13:29:35.976Z,6.20
2022-08-01T13:32:28.465Z,5.93
2022-08-01T13:35:10.944Z,6.35
2022-08-01T13:37:39.111Z,6.30
2022-08-01T13:40:08.224Z,5.97
2022-08-01T13:42:36.031Z,5.70
2022-08-01T13:45:04.057Z,6.07
2022-08-01T13:48:12.310Z,5.70
2022-08-01T13:50:28.309Z,5.83
2022-08-01T13:52:55.514Z,7.00
2022-08-01T13:55:22.406Z,5.97
2022-08-01T13:57:49.322Z,6.00
2022-08-01T14:00:16.857Z,6.28
2022-08-01T14:02:43.774Z,6.20
2022-08-01T14:05:10.706Z,6.00
2022-08-01T14:07:38.207Z,6.10
2022-08-01T14:10:18.479Z,6.20
2022-08-01T14:12:47.911Z,6.30
2022-08-01T14:15:36.736Z,6.30
2022-08-01T14:18:02.575Z,6.03
2022-08-01T14:20:29.504Z,6.20
2022-08-01T14:22:56.373Z,6.97
2022-08-01T14:25:24.087Z,6.22
2022-08-01T14:28:10.781Z,6.93
2022-08-01T14:30:38.094Z,6.20
2022-08-01T14:33:05.087Z,6.60
2022-08-01T14:35:46.470Z,6.15
2022-08-01T14:38:31.343Z,7.05
2022-08-01T14:40:58.873Z,6.60
2022-08-01T14:43:30.719Z,6.47
2022-08-01T14:46:00.270Z,6.40
2022-08-01T14:48:27.442Z,5.70
2022-08-01T14:50:54.354Z,5.65
2022-08-01T14:53:21.376Z,6.50
2022-08-01T14:55:48.401Z,5.72
2022-08-01T14:58:15.290Z,5.47
2022-08-01T15:00:42.363Z,6.20
2022-08-01T15:03:09.520Z,7.10
2022-08-01T15:05:36.438Z,6.57
2022-08-01T15:08:04.479Z,7.53
2022-08-01T15:10:31.366Z,7.20
2022-08-01T15:12:58.199Z,6.80
2022-08-01T15:15:25.077Z,6.80
2022-08-01T15:17:52.077Z,6.57
2022-08-01T15:20:19.656Z,6.90
2022-08-01T15:22:46.543Z,6.80
2022-08-01T15:25:13.528Z,7.30
2022-08-01T15:27:40.412Z,7.05
2022-08-01T15:30:08.075Z,6.97
2022-08-01T15:32:34.936Z,7.22
2022-08-01T15:35:01.907Z,7.13
2022-08-01T15:37:28.737Z,6.88
2022-08-01T15:39:56.707Z,7.18
2022-08-01T15:42:25.550Z,6.87
2022-08-01T15:44:54.153Z,6.90
2022-08-01T15:47:21.223Z,6.90
2022-08-01T15:49:52.453Z,6.97
2022-08-01T15:52:21.510Z,6.80
2022-08-01T15:54:50.316Z,6.97
2022-08-01T15:57:17.388Z,6.97
2022-08-01T15:59:44.210Z,7.32
2022-08-01T16:02:11.526Z,7.72
2022-08-01T16:04:39.181Z,7.45
2022-08-01T16:07:06.509Z,7.80
2022-08-01T16:09:34.860Z,8.45
2022-08-01T16:12:01.747Z,8.85
2022-08-01T16:14:28.563Z,8.85
2022-08-01T16:16:57.108Z,8.50
2022-08-01T16:19:24.786Z,8.20
2022-08-01T16:21:51.730Z,8.10
2022-08-01T16:24:18.792Z,8.57
2022-08-01T16:26:45.646Z,8.93
2022-08-01T16:29:12.490Z,8.00
2022-08-01T16:31:57.680Z,8.17
2022-08-01T16:34:26.313Z,8.60
2022-08-01T16:36:53.195Z,9.57
2022-08-01T16:39:23.248Z,9.07
2022-08-01T16:41:55.131Z,8.90
2022-08-01T16:44:42.221Z,8.90
2022-08-01T16:47:09.484Z,8.70
2022-08-01T16:49:38.484Z,9.23
2022-08-01T16:52:05.990Z,8.00
2022-08-01T16:54:32.956Z,9.40
2022-08-01T16:57:08.072Z,9.90
2022-08-01T16:59:41.555Z,9.77
2022-08-01T17:02:13.327Z,9.10
2022-08-01T17:04:46.581Z,8.50
2022-08-01T17:07:21.939Z,8.63
2022-08-01T17:09:48.885Z,8.83
2022-08-01T17:12:21.925Z,8.00
2022-08-01T17:14:49.981Z,8.50
2022-08-01T17:17:17.016Z,7.75
2022-08-01T17:19:43.902Z,9.02
2022-08-01T17:22:11.022Z,8.23
2022-08-01T17:24:38.304Z,8.63
2022-08-01T17:27:09.371Z,8.43
2022-08-01T17:29:43.462Z,8.32
2022-08-01T17:32:11.553Z,8.27
2022-08-01T17:34:38.465Z,8.37
2022-08-01T17:37:05.600Z,8.18
2022-08-01T17:39:38.971Z,8.93
2022-08-01T17:42:10.362Z,8.30
2022-08-01T17:44:37.539Z,9.48
2022-08-01T17:47:05.684Z,9.20
2022-08-01T17:49:53.878Z,8.75
2022-08-01T17:52:19.801Z,9.10
2022-08-01T17:54:47.811Z,9.60
2022-08-01T17:57:14.694Z,8.80
2022-08-01T17:59:41.599Z,9.03
2022-08-01T18:02:08.550Z,9.63
2022-08-01T18:04:35.997Z,9.00
2022-08-01T18:07:11.834Z,9.43
2022-08-01T18:09:43.964Z,9.48
2022-08-01T18:12:13.756Z,9.53
2022-08-01T18:14:41.346Z,9.68
2022-08-01T18:17:11.661Z,8.75
2022-08-01T18:19:39.902Z,8.30
2022-08-01T18:22:14.449Z,9.77
2022-08-01T18:24:54.159Z,10.00
2022-08-01T18:27:21.211Z,8.65
2022-08-01T18:29:48.809Z,10.02
2022-08-01T18:32:16.375Z,10.10
2022-08-01T18:34:43.430Z,10.73
2022-08-01T18:37:10.468Z,10.20
2022-08-01T18:39:40.091Z,10.23
2022-08-01T18:42:07.450Z,10.23
2022-08-01T18:44:34.787Z,9.27
2022-08-01T18:47:01.824Z,9.88
2022-08-01T18:49:28.842Z,8.27
2022-08-01T18:51:55.839Z,8.48
2022-08-01T18:54:22.775Z,9.63
2022-08-01T18:56:49.890Z,9.02
2022-08-01T18:59:16.729Z,10.00
2022-08-01T19:01:43.983Z,9.73
2022-08-01T19:04:11.586Z,9.48
2022-08-01T19:06:38.510Z,9.70
2022-08-01T19:09:05.954Z,9.88
2022-08-01T19:11:34.394Z,10.25
2022-08-01T19:14:01.739Z,8.97
2022-08-01T19:16:28.987Z,9.60
2022-08-01T19:18:55.897Z,10.25
2022-08-01T19:21:22.849Z,9.85
2022-08-01T19:23:49.993Z,10.13
2022-08-01T19:26:21.074Z,9.20
2022-08-01T19:28:52.608Z,10.02
2022-08-01T19:31:24.606Z,9.10
2022-08-01T19:33:52.849Z,9.60
2022-08-01T19:36:19.893Z,8.60
2022-08-01T19:38:47.730Z,10.00
2022-08-01T19:41:17.910Z,9.55
2022-08-01T19:43:46.760Z,9.35
2022-08-01T19:46:17.150Z,9.52
2022-08-01T19:48:48.529Z,9.95
2022-08-01T19:51:19.894Z,8.87
2022-08-01T19:53:55.102Z,9.00
2022-08-01T19:56:26.029Z,9.63
2022-08-01T19:59:00.022Z,9.50
2022-08-01T20:01:27.947Z,10.23
2022-08-01T20:03:56.084Z,9.63
2022-08-01T20:06:24.526Z,9.75
2022-08-01T20:08:52.502Z,9.60
2022-08-01T20:11:22.015Z,9.57
2022-08-01T20:13:50.879Z,9.48
2022-08-01T20:16:18.402Z,9.70
2022-08-01T20:18:45.275Z,9.27
2022-08-01T20:21:13.185Z,9.38
2022-08-01T20:23:42.933Z,9.98
2022-08-01T20:26:10.596Z,9.48
2022-08-01T20:28:40.474Z,9.57
2022-08-01T20:31:09.649Z,9.55
2022-08-01T20:33:43.319Z,9.75
2022-08-01T20:36:12.180Z,9.32
2022-08-01T20:38:54.799Z,8.73
2022-08-01T20:41:27.422Z,8.57
2022-08-01T20:43:56.581Z,8.98
2022-08-01T20:46:25.370Z,8.82
2022-08-01T20:48:56.837Z,8.43
2022-08-01T20:51:24.968Z,8.50
2022-08-01T20:53:52.301Z,9.03
2022-08-01T20:56:30.057Z,8.95
2022-08-01T20:59:39.674Z,8.40
2022-08-01T21:02:23.518Z,8.82
2022-08-01T21:04:56.240Z,8.40
2022-08-01T21:07:28.903Z,8.70
2022-08-01T21:10:08.062Z,8.68
2022-08-01T21:12:49.673Z,7.70
2022-08-01T21:15:59.827Z,8.52
2022-08-01T21:18:38.897Z,8.07
2022-08-01T21:21:21.286Z,8.20
2022-08-01T21:24:04.925Z,7.90
2022-08-01T21:26:35.209Z,7.90
2022-08-01T21:29:06.970Z,8.05
2022-08-01T21:31:40.363Z,7.88
2022-08-01T21:34:09.647Z,7.80
2022-08-01T21:36:37.154Z,7.82
2022-08-01T21:39:06.615Z,8.48
2022-08-01T21:41:56.449Z,7.78
2022-08-01T21:44:28.838Z,8.35
2022-08-01T21:46:59.481Z,7.80
2022-08-01T21:49:26.977Z,8.10
2022-08-01T21:52:04.457Z,7.57
2022-08-01T21:54:49.999Z,7.78
2022-08-01T21:57:50.583Z,8.15
2022-08-01T22:00:24.884Z,7.87
2022-08-01T22:03:30.822Z,8.13
2022-08-01T22:06:01.471Z,8.05
2022-08-01T22:08:45.242Z,7.72
2022-08-01T22:11:18.397Z,7.90
2022-08-01T22:13:45.678Z,6.97
2022-08-01T22:16:14.854Z,7.88
2022-08-01T22:18:42.505Z,6.90
2022-08-01T22:21:10.139Z,6.90
2022-08-01T22:23:37.808Z,7.65
2022-08-01T22:26:09.846Z,7.77
2022-08-01T22:28:38.988Z,6.95
2022-08-01T22:31:06.332Z,7.50
2022-08-01T22:33:38.793Z,7.22
2022-08-01T22:36:07.106Z,7.53
2022-08-01T22:38:34.281Z,7.47
2022-08-01T22:41:04.409Z,7.10
2022-08-01T22:43:50.617Z,7.97
2022-08-01T22:46:45.525Z,7.10
2022-08-01T22:49:44.806Z,7.60
2022-08-01T22:52:27.166Z,7.40
2022-08-01T22:55:10.514Z,6.95
2022-08-01T22:57:37.305Z,6.22
2022-08-01T23:00:08.115Z,7.35
2022-08-01T23:02:42.275Z,7.40
2022-08-01T23:05:19.726Z,7.77
2022-08-01T23:07:52.150Z,7.15
2022-08-01T23:10:22.549Z,7.85
2022-08-01T23:12:51.651Z,7.40
2022-08-01T23:15:20.921Z,7.53
2022-08-01T23:17:49.001Z,7.10
2022-08-01T23:20:16.773Z,7.28
2022-08-01T23:22:44.917Z,7.05
2022-08-01T23:25:14.008Z,7.32
2022-08-01T23:27:51.434Z,7.28
2022-08-01T23:30:33.497Z,7.20
2022-08-01T23:33:01.067Z,7.70
2022-08-01T23:35:29.376Z,6.70
2022-08-01T23:38:01.932Z,7.22
2022-08-01T23:40:30.261Z,6.80
2022-08-01T23:42:57.282Z,6.43
2022-08-01T23:45:24.316Z,7.05
2022-08-01T23:47:51.923Z,6.97
2022-08-01T23:50:19.327Z,7.00
2022-08-01T23:52:52.987Z,6.65
2022-08-01T23:55:33.377Z,6.97
2022-08-01T23:58:04.370Z,6.38
